Time;durP1;ratioP1;P1;durP2;ratioP2;P2;SDS_P1;SDS_P2;PMS_P1;PMS_P2;Temp;Humidity;BMP_temperature;BMP_pressure;BME280_temperature;BME280_humidity;BME280_pressure;Samples;Min_cycle;Max_cycle;Signal;HPM_P1;HPM_P2
2020/12/04 00:00:23;;;;;;;1.37;1.10;;;17.90;51.30;;;;;;5028354;28;20218;-54
2020/12/04 00:02:49;;;;;;;1.20;1.03;;;17.90;51.40;;;;;;5007761;28;20240;-54
2020/12/04 00:05:20;;;;;;;1.20;1.00;;;17.90;51.40;;;;;;5000304;28;20223;-56
2020/12/04 00:07:46;;;;;;;1.40;1.10;;;17.90;52.00;;;;;;5010107;28;20223;-55
2020/12/04 00:10:13;;;;;;;1.20;1.10;;;17.90;51.40;;;;;;5008659;28;20225;-55
2020/12/04 00:12:40;;;;;;;1.20;1.10;;;17.80;51.40;;;;;;5021788;28;20710;-56
2020/12/04 00:15:16;;;;;;;1.20;1.00;;;17.90;51.40;;;;;;5021852;28;20228;-54
2020/12/04 00:17:43;;;;;;;1.93;1.20;;;17.80;51.50;;;;;;5014363;28;20688;-56
2020/12/04 00:20:09;;;;;;;1.77;1.13;;;17.80;51.60;;;;;;5014030;28;20714;-56
2020/12/04 00:22:35;;;;;;;1.30;0.93;;;17.80;51.60;;;;;;5013278;28;20578;-53
2020/12/04 00:25:01;;;;;;;1.23;1.10;;;17.80;51.80;;;;;;4999704;28;20618;-54
2020/12/04 00:27:27;;;;;;;1.60;0.93;;;17.70;51.60;;;;;;5008858;28;20309;-55
2020/12/04 00:29:54;;;;;;;1.40;0.90;;;17.80;51.60;;;;;;4998189;28;20285;-54
2020/12/04 00:32:20;;;;;;;1.20;0.80;;;17.70;51.70;;;;;;5006257;28;20257;-54
2020/12/04 00:34:51;;;;;;;1.53;1.07;;;17.70;51.70;;;;;;5001885;28;20231;-54
2020/12/04 00:37:17;;;;;;;2.07;0.90;;;17.70;52.30;;;;;;5006964;28;20229;-54
2020/12/04 00:39:44;;;;;;;1.70;1.20;;;17.70;51.70;;;;;;4996939;28;20230;-54
2020/12/04 00:42:10;;;;;;;1.23;1.10;;;17.60;51.80;;;;;;5005937;28;20246;-54
2020/12/04 00:44:36;;;;;;;0.93;0.83;;;17.70;51.80;;;;;;5009437;28;20242;-54
2020/12/04 00:47:02;;;;;;;0.97;0.83;;;17.60;51.80;;;;;;5019467;28;20219;-54
2020/12/04 00:49:29;;;;;;;1.27;0.90;;;17.60;51.80;;;;;;5023384;28;20215;-55
2020/12/04 00:51:55;;;;;;;0.90;0.83;;;17.60;52.00;;;;;;5019773;28;20946;-55
2020/12/04 00:54:21;;;;;;;1.00;0.90;;;17.60;51.80;;;;;;5025538;28;20221;-54
2020/12/04 00:56:47;;;;;;;1.73;1.10;;;17.60;52.00;;;;;;5017730;28;20235;-55
2020/12/04 00:59:14;;;;;;;0.80;0.80;;;17.60;52.00;;;;;;5026008;28;20215;-54
2020/12/04 01:01:40;;;;;;;1.40;1.00;;;17.60;52.00;;;;;;5015408;28;20423;-54
2020/12/04 01:04:07;;;;;;;2.07;0.97;;;17.60;51.80;;;;;;5004080;28;20750;-53
2020/12/04 01:06:34;;;;;;;1.20;1.03;;;17.60;52.00;;;;;;5001090;28;20243;-54
2020/12/04 01:09:00;;;;;;;0.80;0.80;;;17.50;51.90;;;;;;5007878;28;20218;-55
2020/12/04 01:11:30;;;;;;;0.83;0.80;;;17.50;52.00;;;;;;5003556;28;20227;-55
2020/12/04 01:13:56;;;;;;;1.00;0.70;;;17.50;52.10;;;;;;5004949;28;20236;-54
2020/12/04 01:16:22;;;;;;;1.03;0.77;;;17.50;52.10;;;;;;5013498;28;20269;-55
2020/12/04 01:18:48;;;;;;;0.77;0.67;;;17.50;52.10;;;;;;5021817;28;20228;-55
2020/12/04 01:21:15;;;;;;;1.57;0.70;;;17.50;52.10;;;;;;5019679;28;20268;-55
2020/12/04 01:23:41;;;;;;;0.80;0.70;;;17.50;52.10;;;;;;5028977;28;20219;-55
2020/12/04 01:26:08;;;;;;;0.93;0.70;;;17.50;52.00;;;;;;5020834;28;20230;-55
2020/12/04 01:28:34;;;;;;;0.90;0.70;;;17.50;52.10;;;;;;5011382;28;20227;-55
2020/12/04 01:31:00;;;;;;;1.63;0.80;;;17.50;52.30;;;;;;5008621;28;20644;-56
2020/12/04 01:33:27;;;;;;;1.33;0.70;;;17.40;52.20;;;;;;5002560;28;20289;-55
2020/12/04 01:35:58;;;;;;;0.40;0.40;;;17.40;52.10;;;;;;5023816;28;20230;-55
2020/12/04 01:38:24;;;;;;;0.63;0.50;;;17.40;52.20;;;;;;5022055;28;20651;-54
2020/12/04 01:40:56;;;;;;;0.70;0.50;;;17.40;52.20;;;;;;5030292;28;20226;-54
2020/12/04 01:43:22;;;;;;;0.60;0.53;;;17.40;52.40;;;;;;5022164;28;20237;-53
2020/12/04 01:45:48;;;;;;;0.63;0.60;;;17.40;52.30;;;;;;5021621;28;20234;-54
2020/12/04 01:48:14;;;;;;;0.60;0.30;;;17.40;52.20;;;;;;5003962;28;20235;-54
2020/12/04 01:50:40;;;;;;;0.53;0.53;;;17.40;52.20;;;;;;5026386;28;20288;-55
2020/12/04 01:53:07;;;;;;;0.57;0.47;;;17.40;52.40;;;;;;5022668;28;20226;-55
2020/12/04 01:55:33;;;;;;;0.70;0.60;;;17.30;52.80;;;;;;5022575;28;20782;-54
2020/12/04 01:58:02;;;;;;;2.47;0.67;;;17.40;52.30;;;;;;4998694;28;20234;-55
2020/12/04 02:00:28;;;;;;;1.20;0.40;;;17.30;52.40;;;;;;5009312;28;20227;-55
2020/12/04 02:02:54;;;;;;;0.40;0.40;;;17.30;52.40;;;;;;5015792;28;20232;-56
2020/12/04 02:05:20;;;;;;;0.60;0.60;;;17.30;52.50;;;;;;5026463;28;20269;-56
2020/12/04 02:08:05;;;;;;;0.60;0.50;;;17.30;52.50;;;;;;5030883;28;20222;-54
2020/12/04 02:10:51;;;;;;;0.40;0.37;;;17.30;52.50;;;;;;5003726;28;20725;-53
2020/12/04 02:13:19;;;;;;;0.60;0.50;;;17.30;52.50;;;;;;5009687;28;20239;-55
2020/12/04 02:15:45;;;;;;;0.77;0.50;;;17.30;52.60;;;;;;4997158;28;20738;-55
2020/12/04 02:18:13;;;;;;;0.60;0.50;;;17.30;52.80;;;;;;5009539;28;20281;-55
2020/12/04 02:20:39;;;;;;;0.53;0.50;;;17.30;52.70;;;;;;5002847;28;20494;-56
2020/12/04 02:23:05;;;;;;;0.60;0.60;;;17.30;52.70;;;;;;4997560;28;20231;-56
2020/12/04 02:25:36;;;;;;;0.60;0.40;;;17.30;52.80;;;;;;5001650;28;20234;-54
2020/12/04 02:28:02;;;;;;;0.47;0.47;;;17.20;52.60;;;;;;5009149;28;20278;-57
2020/12/04 02:30:31;;;;;;;0.50;0.50;;;17.20;52.80;;;;;;5003369;28;20247;-55
2020/12/04 02:32:58;;;;;;;0.73;0.30;;;17.20;52.70;;;;;;5010098;28;20238;-55
2020/12/04 02:35:24;;;;;;;1.30;0.50;;;17.20;52.90;;;;;;5003446;28;20230;-55
2020/12/04 02:37:52;;;;;;;0.40;0.40;;;17.20;52.80;;;;;;5008347;28;20235;-55
2020/12/04 02:40:19;;;;;;;0.50;0.40;;;17.20;52.90;;;;;;5002094;28;21704;-55
2020/12/04 02:42:45;;;;;;;0.47;0.40;;;17.20;52.80;;;;;;5009912;28;20290;-55
2020/12/04 02:45:12;;;;;;;0.40;0.37;;;17.20;52.80;;;;;;5010577;28;21452;-55
2020/12/04 02:47:40;;;;;;;0.90;0.47;;;17.20;53.00;;;;;;5015710;28;20227;-55
2020/12/04 02:50:06;;;;;;;1.07;0.50;;;17.20;53.50;;;;;;5019637;28;20231;-55
2020/12/04 02:52:32;;;;;;;0.50;0.50;;;17.10;52.80;;;;;;5028658;28;20265;-55
2020/12/04 02:54:58;;;;;;;1.23;0.67;;;17.20;53.00;;;;;;5028431;28;20223;-55
2020/12/04 02:57:25;;;;;;;1.90;0.47;;;17.10;53.00;;;;;;5023022;28;20578;-55
2020/12/04 02:59:51;;;;;;;0.37;0.30;;;17.10;53.00;;;;;;5027522;28;20222;-55
2020/12/04 03:02:17;;;;;;;1.10;0.47;;;17.20;53.10;;;;;;5019138;28;20604;-55
2020/12/04 03:04:43;;;;;;;0.80;0.50;;;17.10;53.00;;;;;;5026026;28;20250;-56
2020/12/04 03:07:11;;;;;;;0.57;0.47;;;17.10;53.00;;;;;;5022053;28;20222;-55
2020/12/04 03:09:37;;;;;;;0.70;0.60;;;17.10;52.80;;;;;;5029063;28;20235;-55
2020/12/04 03:12:04;;;;;;;0.60;0.60;;;17.10;53.00;;;;;;5021333;28;20233;-55
2020/12/04 03:14:30;;;;;;;0.70;0.57;;;17.10;53.10;;;;;;5029215;28;20218;-55
2020/12/04 03:16:56;;;;;;;0.53;0.53;;;17.10;53.20;;;;;;5024990;28;22046;-55
2020/12/04 03:19:22;;;;;;;0.53;0.50;;;17.10;53.00;;;;;;5025668;28;20668;-55
2020/12/04 03:21:49;;;;;;;0.80;0.50;;;17.10;53.00;;;;;;5021622;28;20759;-55
2020/12/04 03:24:15;;;;;;;1.23;0.50;;;17.10;53.10;;;;;;5030043;28;20226;-55
2020/12/04 03:26:41;;;;;;;0.60;0.60;;;17.00;53.20;;;;;;5018912;28;20326;-55
2020/12/04 03:29:07;;;;;;;0.70;0.50;;;17.10;53.00;;;;;;5027721;28;20285;-55
2020/12/04 03:31:34;;;;;;;1.33;0.90;;;17.10;53.00;;;;;;5027432;28;20223;-55
2020/12/04 03:34:01;;;;;;;0.70;0.40;;;17.00;52.90;;;;;;5025689;28;20237;-55
2020/12/04 03:36:27;;;;;;;4.43;0.70;;;17.00;52.90;;;;;;5028150;28;20235;-55
2020/12/04 03:38:54;;;;;;;0.60;0.60;;;17.00;52.90;;;;;;5020114;28;20233;-55
2020/12/04 03:41:20;;;;;;;0.70;0.60;;;17.00;52.90;;;;;;5022172;28;20757;-55
2020/12/04 03:43:46;;;;;;;0.70;0.50;;;17.00;52.80;;;;;;5015665;28;20242;-55
2020/12/04 03:46:13;;;;;;;1.30;0.93;;;17.00;52.90;;;;;;5028447;28;20281;-55
2020/12/04 03:48:40;;;;;;;0.80;0.70;;;17.00;53.00;;;;;;5022054;28;20227;-55
2020/12/04 03:51:07;;;;;;;1.00;0.73;;;16.90;52.90;;;;;;5027460;28;20219;-55
2020/12/04 03:53:33;;;;;;;0.97;0.67;;;17.00;52.80;;;;;;5020803;28;20281;-55
2020/12/04 03:56:00;;;;;;;1.70;0.80;;;17.00;52.70;;;;;;5027910;28;20223;-55
2020/12/04 03:58:26;;;;;;;2.97;0.80;;;17.00;52.80;;;;;;5021549;28;20227;-55
2020/12/04 04:00:54;;;;;;;0.63;0.53;;;16.90;52.70;;;;;;5028877;28;20572;-55
2020/12/04 04:03:20;;;;;;;0.60;0.60;;;17.00;52.70;;;;;;5019895;28;20241;-55
2020/12/04 04:05:46;;;;;;;0.70;0.70;;;16.90;52.70;;;;;;5026268;28;20242;-55
2020/12/04 04:08:12;;;;;;;0.77;0.70;;;16.90;52.60;;;;;;5015272;28;20250;-55
2020/12/04 04:10:39;;;;;;;0.60;0.60;;;17.00;52.80;;;;;;5023451;28;21901;-55
2020/12/04 04:13:05;;;;;;;0.60;0.60;;;16.90;52.70;;;;;;5026295;28;20227;-55
2020/12/04 04:15:31;;;;;;;0.83;0.63;;;16.90;52.70;;;;;;5019550;28;20829;-54
2020/12/04 04:17:59;;;;;;;0.90;0.90;;;16.90;52.70;;;;;;5028653;28;20699;-55
2020/12/04 04:20:26;;;;;;;0.67;0.40;;;16.90;52.70;;;;;;5019375;28;20222;-55
2020/12/04 04:22:53;;;;;;;1.27;0.90;;;16.90;52.80;;;;;;5031572;28;20819;-53
2020/12/04 04:25:19;;;;;;;0.60;0.60;;;16.90;52.70;;;;;;5018696;28;20229;-55
2020/12/04 04:27:46;;;;;;;0.70;0.70;;;16.90;52.80;;;;;;5026923;28;20242;-55
2020/12/04 04:30:13;;;;;;;1.10;0.87;;;16.90;52.90;;;;;;5017986;28;20218;-55
2020/12/04 04:32:39;;;;;;;1.00;0.73;;;16.90;52.90;;;;;;5024023;28;20257;-55
2020/12/04 04:35:11;;;;;;;0.60;0.60;;;16.90;52.80;;;;;;5017973;28;20214;-56
2020/12/04 04:37:38;;;;;;;0.80;0.60;;;16.90;53.50;;;;;;5026817;28;20350;-55
2020/12/04 04:40:04;;;;;;;0.83;0.70;;;16.90;53.00;;;;;;5018338;28;20218;-55
2020/12/04 04:42:30;;;;;;;1.03;0.70;;;16.90;53.10;;;;;;5027571;28;20628;-55
2020/12/04 04:45:03;;;;;;;0.97;0.80;;;16.90;53.10;;;;;;5018485;28;20222;-55
2020/12/04 04:47:32;;;;;;;0.60;0.50;;;16.90;53.10;;;;;;5026785;28;20227;-56
2020/12/04 04:49:58;;;;;;;0.70;0.67;;;16.80;53.00;;;;;;5018911;28;20234;-55
2020/12/04 04:52:25;;;;;;;2.57;0.90;;;16.90;53.00;;;;;;5027213;28;20218;-55
2020/12/04 04:54:57;;;;;;;0.47;0.40;;;16.90;52.90;;;;;;5026660;28;20219;-56
2020/12/04 04:57:24;;;;;;;0.50;0.50;;;16.90;53.50;;;;;;5020066;28;20742;-54
2020/12/04 04:59:55;;;;;;;1.13;0.50;;;16.80;52.80;;;;;;5025900;28;20215;-54
2020/12/04 05:02:22;;;;;;;0.50;0.50;;;16.80;52.90;;;;;;5001546;28;20428;-56
2020/12/04 05:04:54;;;;;;;0.90;0.60;;;16.80;52.80;;;;;;5026138;28;20222;-56
2020/12/04 05:07:32;;;;;;;1.63;0.53;;;16.80;52.90;;;;;;5020043;28;20227;-54
2020/12/04 05:10:15;;;;;;;0.70;0.70;;;16.80;52.90;;;;;;5019563;28;20238;-53
2020/12/04 05:12:44;;;;;;;1.17;0.63;;;16.80;52.90;;;;;;5015180;28;20567;-57
2020/12/04 05:15:29;;;;;;;1.37;0.50;;;16.80;52.80;;;;;;5027803;28;20242;-55
2020/12/04 05:18:20;;;;;;;1.70;0.40;;;16.80;53.00;;;;;;5014389;28;20769;-54
2020/12/04 05:20:52;;;;;;;0.50;0.50;;;16.80;52.90;;;;;;5032844;28;20739;-54
2020/12/04 05:23:19;;;;;;;0.50;0.50;;;16.80;52.90;;;;;;5018799;28;20300;-54
2020/12/04 05:25:47;;;;;;;0.70;0.60;;;16.80;52.80;;;;;;5025825;28;20219;-55
2020/12/04 05:28:24;;;;;;;0.97;0.60;;;16.80;52.90;;;;;;5015902;28;20235;-55
2020/12/04 05:31:05;;;;;;;0.40;0.40;;;16.80;52.80;;;;;;5024184;28;20433;-55
2020/12/04 05:33:32;;;;;;;0.60;0.50;;;16.80;52.90;;;;;;5011769;28;21034;-55
2020/12/04 05:36:04;;;;;;;0.50;0.50;;;16.80;52.80;;;;;;5004875;28;20274;-55
2020/12/04 05:38:31;;;;;;;0.30;0.30;;;16.80;53.00;;;;;;5009514;28;20317;-55
2020/12/04 05:41:06;;;;;;;0.67;0.63;;;16.80;53.00;;;;;;5020990;28;20831;-55
2020/12/04 05:43:34;;;;;;;0.73;0.50;;;16.80;52.90;;;;;;4998543;28;20231;-55
2020/12/04 05:46:20;;;;;;;0.73;0.40;;;16.80;53.10;;;;;;5020724;28;20578;-55
2020/12/04 05:49:00;;;;;;;1.43;0.40;;;16.80;53.30;;;;;;5018919;28;20707;-53
2020/12/04 05:51:29;;;;;;;0.70;0.60;;;16.80;53.20;;;;;;5024861;28;20829;-54
2020/12/04 05:53:56;;;;;;;0.60;0.60;;;16.80;53.30;;;;;;5018914;28;21981;-55
2020/12/04 05:56:33;;;;;;;0.40;0.30;;;16.80;53.30;;;;;;5031968;28;20225;-54
2020/12/04 05:59:02;;;;;;;0.80;0.80;;;16.80;53.30;;;;;;5020251;28;20744;-56
2020/12/04 06:01:29;;;;;;;1.50;0.50;;;16.80;53.10;;;;;;5025529;28;20235;-54
2020/12/04 06:03:56;;;;;;;0.60;0.60;;;16.70;53.00;;;;;;5020066;28;20231;-56
2020/12/04 06:06:30;;;;;;;0.80;0.50;;;16.80;52.90;;;;;;5030602;28;20238;-55
2020/12/04 06:09:05;;;;;;;0.53;0.40;;;16.80;52.90;;;;;;5021604;28;20686;-55
2020/12/04 06:11:46;;;;;;;0.33;0.30;;;16.70;52.70;;;;;;5027125;28;20589;-55
2020/12/04 06:14:23;;;;;;;2.80;0.70;;;16.80;52.80;;;;;;5020307;28;20234;-55
2020/12/04 06:17:01;;;;;;;0.83;0.60;;;16.70;52.50;;;;;;5031186;28;20227;-55
2020/12/04 06:19:35;;;;;;;0.70;0.57;;;16.70;52.60;;;;;;5022127;28;20242;-55
2020/12/04 06:22:02;;;;;;;0.67;0.63;;;16.80;52.70;;;;;;5028639;28;20238;-55
2020/12/04 06:24:54;;;;;;;1.80;0.60;;;16.70;52.60;;;;;;5023535;28;20252;-54
2020/12/04 06:27:45;;;;;;;0.60;0.60;;;16.70;52.40;;;;;;5030488;28;20699;-54
2020/12/04 06:30:17;;;;;;;0.50;0.50;;;16.70;52.60;;;;;;5023441;28;20757;-56
2020/12/04 06:32:45;;;;;;;1.20;0.77;;;16.70;52.50;;;;;;5023750;28;20223;-55
2020/12/04 06:35:13;;;;;;;0.60;0.60;;;16.70;52.40;;;;;;5020341;28;20819;-53
2020/12/04 06:37:44;;;;;;;2.47;0.47;;;16.70;52.60;;;;;;5014931;28;20231;-56
2020/12/04 06:40:27;;;;;;;1.10;0.40;;;16.70;52.60;;;;;;5021144;28;20226;-56
2020/12/04 06:42:59;;;;;;;0.53;0.40;;;16.70;52.60;;;;;;5027038;28;20219;-54
2020/12/04 06:45:49;;;;;;;0.60;0.37;;;16.70;52.60;;;;;;4998251;28;20247;-54
2020/12/04 06:48:18;;;;;;;1.40;0.43;;;16.70;52.70;;;;;;5025413;28;20579;-55
2020/12/04 06:50:46;;;;;;;1.00;0.40;;;16.70;52.60;;;;;;5014440;28;21909;-55
2020/12/04 06:53:14;;;;;;;0.63;0.60;;;16.70;52.50;;;;;;5007369;28;20246;-55
2020/12/04 06:55:42;;;;;;;1.23;0.67;;;16.70;52.60;;;;;;4992003;28;20215;-54
2020/12/04 06:58:11;;;;;;;0.77;0.50;;;16.70;52.70;;;;;;4983666;28;20278;-53
2020/12/04 07:00:38;;;;;;;1.13;0.40;;;16.70;52.70;;;;;;4995890;28;21272;-53
2020/12/04 07:03:05;;;;;;;0.73;0.40;;;16.70;52.70;;;;;;5007491;28;20260;-53
2020/12/04 07:05:34;;;;;;;0.83;0.40;;;16.70;52.70;;;;;;5004650;28;20227;-55
2020/12/04 07:08:06;;;;;;;0.97;0.53;;;16.70;52.50;;;;;;5001361;28;20588;-55
2020/12/04 07:10:33;;;;;;;2.63;0.50;;;16.70;52.60;;;;;;5009413;28;20223;-55
2020/12/04 07:13:01;;;;;;;0.63;0.50;;;16.70;52.50;;;;;;5006736;28;20241;-55
2020/12/04 07:15:37;;;;;;;2.33;0.70;;;16.70;52.40;;;;;;4998544;28;20226;-60
2020/12/04 07:18:10;;;;;;;0.43;0.37;;;16.70;52.50;;;;;;4956907;28;20237;-55
2020/12/04 07:20:38;;;;;;;0.73;0.47;;;16.70;52.50;;;;;;5021297;28;20246;-57
2020/12/04 07:23:07;;;;;;;0.60;0.60;;;16.70;52.60;;;;;;5013872;28;20269;-54
2020/12/04 07:25:44;;;;;;;0.50;0.30;;;16.70;52.90;;;;;;5011581;28;20289;-55
2020/12/04 07:28:12;;;;;;;1.27;0.83;;;16.70;52.80;;;;;;4998791;28;20239;-56
2020/12/04 07:30:39;;;;;;;1.47;0.60;;;16.70;52.80;;;;;;5030326;28;20222;-58
2020/12/04 07:33:13;;;;;;;3.63;0.60;;;16.70;52.90;;;;;;5015592;28;20596;-63
2020/12/04 07:35:44;;;;;;;3.97;0.50;;;16.90;53.10;;;;;;5027758;28;20311;-58
2020/12/04 07:38:11;;;;;;;1.00;0.30;;;17.60;52.20;;;;;;4999370;28;20859;-58
2020/12/04 07:40:37;;;;;;;0.50;0.30;;;18.10;51.00;;;;;;5024759;28;20358;-57
2020/12/04 07:43:10;;;;;;;0.40;0.30;;;18.50;50.30;;;;;;5015725;28;20284;-57
2020/12/04 07:45:37;;;;;;;0.40;0.30;;;18.70;49.60;;;;;;5026525;28;20234;-56
2020/12/04 07:48:07;;;;;;;0.60;0.30;;;19.00;49.20;;;;;;5017014;28;21077;-58
2020/12/04 07:50:36;;;;;;;2.20;0.27;;;19.10;49.10;;;;;;5022941;28;20215;-58
2020/12/04 07:53:03;;;;;;;0.43;0.30;;;19.40;48.50;;;;;;5017610;28;20239;-58
2020/12/04 07:55:38;;;;;;;0.20;0.13;;;19.80;47.70;;;;;;5025816;28;20284;-59
2020/12/04 07:58:15;;;;;;;2.30;0.13;;;20.10;46.90;;;;;;5004505;28;20271;-57
2020/12/04 08:00:42;;;;;;;1.80;0.30;;;20.30;46.50;;;;;;5026299;28;20237;-58
2020/12/04 08:03:11;;;;;;;1.13;0.33;;;20.50;46.10;;;;;;5015524;28;20616;-59
2020/12/04 08:05:39;;;;;;;3.13;0.20;;;20.70;45.90;;;;;;5007227;28;20235;-57
2020/12/04 08:08:06;;;;;;;0.77;0.20;;;20.90;45.70;;;;;;5005566;28;20226;-58
2020/12/04 08:10:33;;;;;;;0.40;0.30;;;21.00;45.30;;;;;;5021749;28;20219;-56
2020/12/04 08:13:00;;;;;;;0.93;0.30;;;21.20;45.10;;;;;;5022098;28;20293;-57
2020/12/04 08:15:26;;;;;;;0.40;0.20;;;21.30;44.80;;;;;;5009647;28;20822;-56
2020/12/04 08:18:05;;;;;;;0.70;0.20;;;21.50;44.60;;;;;;5005384;28;20223;-57
2020/12/04 08:20:32;;;;;;;2.10;0.30;;;21.60;44.40;;;;;;5000286;28;20316;-57
2020/12/04 08:22:58;;;;;;;0.30;0.30;;;21.70;44.20;;;;;;5024860;28;20238;-57
2020/12/04 08:25:27;;;;;;;0.27;0.20;;;21.90;43.90;;;;;;5024820;28;20226;-56
2020/12/04 08:27:54;;;;;;;0.80;0.40;;;22.00;44.00;;;;;;5020803;28;20223;-57
2020/12/04 08:30:25;;;;;;;0.30;0.30;;;22.10;43.60;;;;;;5018674;28;20218;-56
2020/12/04 08:32:55;;;;;;;0.33;0.20;;;22.20;43.50;;;;;;5024139;28;20230;-57
2020/12/04 08:35:24;;;;;;;0.43;0.20;;;22.40;43.50;;;;;;5011361;28;20222;-57
2020/12/04 08:37:51;;;;;;;1.13;0.30;;;22.60;43.20;;;;;;5019183;28;20270;-58
2020/12/04 08:40:23;;;;;;;0.63;0.20;;;22.70;43.00;;;;;;4989894;28;20243;-56
2020/12/04 08:42:51;;;;;;;1.23;0.30;;;22.70;42.90;;;;;;5003815;28;20910;-56
2020/12/04 08:45:24;;;;;;;0.43;0.20;;;22.90;42.60;;;;;;4986701;28;20700;-57
2020/12/04 08:47:50;;;;;;;4.43;0.30;;;23.00;42.50;;;;;;5000165;28;20249;-58
2020/12/04 08:50:19;;;;;;;0.83;0.20;;;23.00;42.40;;;;;;4997580;28;21046;-59
2020/12/04 08:52:48;;;;;;;0.10;0.10;;;23.10;42.10;;;;;;5004475;28;20258;-62
2020/12/04 08:55:20;;;;;;;0.37;0.37;;;23.30;42.10;;;;;;4994905;28;20223;-59
2020/12/04 08:57:48;;;;;;;0.30;0.30;;;23.40;41.70;;;;;;5002747;28;20470;-58
2020/12/04 09:00:17;;;;;;;0.20;0.20;;;23.50;41.40;;;;;;5006852;28;20223;-56
2020/12/04 09:02:44;;;;;;;0.47;0.20;;;23.70;41.20;;;;;;5022074;28;20230;-58
2020/12/04 09:05:16;;;;;;;0.53;0.20;;;23.70;41.10;;;;;;5011525;28;20223;-58
2020/12/04 09:07:43;;;;;;;1.23;0.33;;;23.80;40.90;;;;;;5016120;28;20695;-58
2020/12/04 09:10:13;;;;;;;1.50;0.30;;;23.90;40.70;;;;;;5022056;28;20481;-58
2020/12/04 09:12:40;;;;;;;0.73;0.30;;;24.00;41.40;;;;;;5015844;28;20231;-59
2020/12/04 09:15:08;;;;;;;1.80;0.30;;;24.00;40.90;;;;;;5021752;28;20674;-59
2020/12/04 09:17:35;;;;;;;1.23;0.33;;;24.00;40.90;;;;;;5014219;28;20229;-58
2020/12/04 09:20:04;;;;;;;1.80;0.30;;;24.00;40.90;;;;;;5016350;28;20231;-59
2020/12/04 09:22:31;;;;;;;1.67;0.40;;;24.00;40.80;;;;;;4995476;28;20227;-58
2020/12/04 09:25:00;;;;;;;5.33;0.40;;;24.10;40.60;;;;;;5004565;28;20262;-56
2020/12/04 09:27:27;;;;;;;2.20;0.30;;;23.90;40.30;;;;;;4996757;28;20235;-58
2020/12/04 09:29:53;;;;;;;3.70;0.40;;;23.40;41.50;;;;;;5002109;28;20227;-56
2020/12/04 09:32:20;;;;;;;0.43;0.30;;;23.00;42.10;;;;;;4990621;28;20220;-56
2020/12/04 09:34:48;;;;;;;0.53;0.50;;;22.70;42.50;;;;;;5003245;28;20231;-57
2020/12/04 09:37:23;;;;;;;1.53;0.30;;;22.50;42.80;;;;;;4993530;28;20731;-57
2020/12/04 09:39:52;;;;;;;0.20;0.20;;;22.30;43.30;;;;;;5008549;28;20241;-57
2020/12/04 09:42:19;;;;;;;0.20;0.20;;;22.10;43.40;;;;;;5002127;28;22595;-57
2020/12/04 09:44:47;;;;;;;0.40;0.40;;;22.00;43.40;;;;;;5028737;28;20242;-57
2020/12/04 09:47:15;;;;;;;0.20;0.20;;;21.90;43.70;;;;;;5016911;28;20241;-57
2020/12/04 09:49:42;;;;;;;0.20;0.20;;;21.80;43.60;;;;;;5022673;28;20255;-57
2020/12/04 09:52:09;;;;;;;0.20;0.20;;;21.70;43.60;;;;;;5023612;28;20226;-57
2020/12/04 09:54:38;;;;;;;0.13;0.10;;;21.60;43.70;;;;;;5018996;28;21917;-56
2020/12/04 09:57:10;;;;;;;0.80;0.30;;;21.60;43.80;;;;;;5028203;28;20288;-57
2020/12/04 09:59:36;;;;;;;0.73;0.30;;;21.50;43.80;;;;;;5020707;28;20832;-57
2020/12/04 10:02:03;;;;;;;0.40;0.30;;;21.40;44.00;;;;;;5026847;28;20786;-57
2020/12/04 10:04:30;;;;;;;0.40;0.30;;;21.30;43.90;;;;;;5016285;28;20230;-57
2020/12/04 10:06:57;;;;;;;0.30;0.30;;;21.30;44.00;;;;;;5022139;28;20235;-57
2020/12/04 10:09:25;;;;;;;9.77;0.83;;;21.30;44.10;;;;;;5018225;28;20234;-57
2020/12/04 10:11:51;;;;;;;6.23;0.50;;;21.20;46.40;;;;;;5022578;28;20242;-57
2020/12/04 10:14:18;;;;;;;4.23;0.33;;;21.10;45.70;;;;;;5018174;28;20246;-57
2020/12/04 10:16:46;;;;;;;1.03;0.30;;;21.20;45.10;;;;;;5018641;28;20230;-57
2020/12/04 10:19:17;;;;;;;0.60;0.30;;;21.70;44.00;;;;;;5009268;28;20931;-59
2020/12/04 10:21:45;;;;;;;0.67;0.40;;;22.20;43.00;;;;;;5024399;28;20234;-58
2020/12/04 10:24:13;;;;;;;0.30;0.30;;;22.60;42.40;;;;;;5020570;28;20230;-57
2020/12/04 10:26:48;;;;;;;3.83;0.50;;;22.90;42.00;;;;;;5026300;28;20260;-58
2020/12/04 10:29:16;;;;;;;0.43;0.20;;;23.10;41.70;;;;;;5020124;28;20658;-56
2020/12/04 10:31:42;;;;;;;0.83;0.37;;;23.20;41.40;;;;;;5020932;28;20223;-56
2020/12/04 10:34:08;;;;;;;0.60;0.27;;;23.40;41.10;;;;;;5001693;28;20235;-58
2020/12/04 10:36:36;;;;;;;1.03;0.40;;;23.60;40.90;;;;;;5016245;28;20234;-56
2020/12/04 10:39:05;;;;;;;0.30;0.30;;;23.60;40.80;;;;;;5009788;28;20227;-59
2020/12/04 10:41:36;;;;;;;1.13;0.30;;;23.70;40.60;;;;;;4999206;28;20247;-58
2020/12/04 10:44:04;;;;;;;0.30;0.30;;;23.80;40.60;;;;;;5005982;28;20470;-58
2020/12/04 10:46:32;;;;;;;0.30;0.20;;;24.00;40.30;;;;;;5010188;28;20707;-58
2020/12/04 10:48:59;;;;;;;0.30;0.20;;;24.10;40.20;;;;;;5020735;28;20714;-57
2020/12/04 10:51:25;;;;;;;0.87;0.40;;;24.20;39.90;;;;;;4999457;28;20581;-56
2020/12/04 10:53:52;;;;;;;0.90;0.43;;;24.30;40.00;;;;;;5005242;28;20239;-55
2020/12/04 10:56:23;;;;;;;0.50;0.40;;;24.40;40.00;;;;;;5004003;28;20222;-55
2020/12/04 10:58:50;;;;;;;0.50;0.30;;;24.50;39.80;;;;;;5003533;28;20238;-57
2020/12/04 11:01:26;;;;;;;0.30;0.27;;;24.60;39.80;;;;;;4999367;28;20281;-59
2020/12/04 11:06:23;;;;;;;3.30;0.40;;;24.80;39.40;;;;;;5019072;28;20230;-56
2020/12/04 11:08:49;;;;;;;2.50;0.47;;;24.70;38.30;;;;;;5011112;28;20789;-57
2020/12/04 11:11:17;;;;;;;0.30;0.30;;;23.20;40.20;;;;;;5012921;28;20742;-58
2020/12/04 11:13:47;;;;;;;1.40;0.40;;;22.30;42.10;;;;;;5009169;28;20238;-55
2020/12/04 11:16:14;;;;;;;0.30;0.27;;;22.00;43.10;;;;;;5000494;28;20236;-56
2020/12/04 11:18:40;;;;;;;1.03;0.30;;;21.70;43.50;;;;;;5007749;28;20257;-57
2020/12/04 11:21:07;;;;;;;0.30;0.30;;;21.60;44.00;;;;;;5002740;28;20235;-56
2020/12/04 11:23:33;;;;;;;0.60;0.30;;;21.40;44.20;;;;;;5006209;28;20223;-56
2020/12/04 11:25:59;;;;;;;0.30;0.20;;;21.20;44.50;;;;;;5004756;28;20285;-56
2020/12/04 11:28:25;;;;;;;1.83;0.33;;;21.10;44.70;;;;;;5011085;28;20227;-55
2020/12/04 11:30:52;;;;;;;0.20;0.20;;;21.10;44.90;;;;;;5023103;28;20225;-55
2020/12/04 11:33:18;;;;;;;1.07;0.30;;;20.90;45.10;;;;;;5021221;28;20643;-57
2020/12/04 11:35:44;;;;;;;0.40;0.30;;;20.90;45.00;;;;;;5025653;28;20218;-56
2020/12/04 11:38:12;;;;;;;0.60;0.40;;;20.80;45.20;;;;;;5021303;28;20233;-57
2020/12/04 11:40:38;;;;;;;0.93;0.40;;;20.70;45.20;;;;;;5025088;28;20230;-59
2020/12/04 11:43:04;;;;;;;0.40;0.30;;;20.80;47.00;;;;;;5019780;28;20242;-57
2020/12/04 11:45:35;;;;;;;1.83;0.27;;;21.10;45.70;;;;;;5019881;28;20223;-56
2020/12/04 11:48:02;;;;;;;0.57;0.33;;;21.30;45.60;;;;;;5018213;28;20702;-57
2020/12/04 11:50:28;;;;;;;0.30;0.20;;;21.30;45.30;;;;;;5025959;28;20743;-59
2020/12/04 11:52:54;;;;;;;1.83;0.30;;;21.40;45.10;;;;;;5014523;28;20230;-58
2020/12/04 11:55:20;;;;;;;0.83;0.40;;;21.40;44.70;;;;;;5019746;28;20585;-58
2020/12/04 11:57:47;;;;;;;0.57;0.33;;;21.50;44.70;;;;;;5016148;28;20592;-58
2020/12/04 12:00:13;;;;;;;2.30;0.50;;;21.50;44.70;;;;;;5024450;28;20234;-58
2020/12/04 12:02:39;;;;;;;0.83;0.30;;;21.50;44.70;;;;;;5024927;28;20666;-57
2020/12/04 12:05:06;;;;;;;0.97;0.47;;;21.50;44.60;;;;;;5015186;28;20227;-57
2020/12/04 12:07:32;;;;;;;0.67;0.20;;;21.60;44.40;;;;;;5025391;28;20231;-55
2020/12/04 12:10:03;;;;;;;0.40;0.23;;;21.60;44.40;;;;;;5014440;28;20566;-58
2020/12/04 12:12:30;;;;;;;0.40;0.30;;;21.50;44.20;;;;;;5012151;28;20612;-58
2020/12/04 12:15:02;;;;;;;1.80;0.40;;;21.50;44.40;;;;;;5016298;28;20214;-58
2020/12/04 12:17:28;;;;;;;0.90;0.40;;;21.50;44.70;;;;;;5025759;28;20284;-57
2020/12/04 12:19:55;;;;;;;0.33;0.30;;;21.50;44.80;;;;;;5017699;28;20273;-58
2020/12/04 12:22:21;;;;;;;0.80;0.43;;;21.50;44.60;;;;;;5022900;28;20242;-59
2020/12/04 12:24:47;;;;;;;0.30;0.30;;;21.60;44.50;;;;;;4998891;28;20734;-59
2020/12/04 12:27:13;;;;;;;0.40;0.40;;;21.50;44.30;;;;;;5022480;28;20234;-59
2020/12/04 12:29:40;;;;;;;0.10;0.10;;;21.50;44.30;;;;;;5016813;28;21043;-58
2020/12/04 12:32:07;;;;;;;0.60;0.50;;;21.50;44.20;;;;;;4998864;28;20593;-59
2020/12/04 12:37:19;;;;;;;0.20;0.10;;;21.50;44.10;;;;;;5003947;28;20984;-56
2020/12/04 12:39:45;;;;;;;0.30;0.30;;;21.50;44.50;;;;;;4995892;28;20301;-56
2020/12/04 12:42:14;;;;;;;0.30;0.30;;;21.50;44.30;;;;;;5005469;28;20223;-56
2020/12/04 12:44:46;;;;;;;0.20;0.20;;;21.50;44.30;;;;;;4999798;28;20731;-58
2020/12/04 12:47:13;;;;;;;3.90;0.30;;;21.20;43.10;;;;;;5000940;28;20651;-57
2020/12/04 12:49:45;;;;;;;2.10;0.33;;;21.20;44.70;;;;;;5004514;28;20293;-56
2020/12/04 12:52:12;;;;;;;0.30;0.20;;;21.20;44.40;;;;;;4989799;28;20277;-56
2020/12/04 12:54:39;;;;;;;0.70;0.30;;;21.30;44.20;;;;;;5007071;28;20239;-57
2020/12/04 12:57:05;;;;;;;0.57;0.40;;;21.30;44.30;;;;;;5016563;28;20277;-56
2020/12/04 12:59:32;;;;;;;0.37;0.20;;;21.40;44.60;;;;;;5009859;28;20342;-57